KPWA/PWA METAR and TAF weather

Enter ICAO airport designator
Station Type Date Time Source
KPWA METAR 2020/06/03 21:53 UTC NOAA

KPWA 032153Z 19012KT 10SM CLR 34/21 A2984 RMK AO2 SLP088 T03390206


Station Type Date Time Source
KPWA Decoded METAR 2020/06/03 21:53 UTC NOAA

WILEY POST, OK, United States (KPWA) 35-32N 97-39W 397M
Jun 03, 2020 - 05:53 PM EDT / 2020.06.03 2153 UTC
Wind: from the S (190 degrees) at 14 MPH (12 KT):0
Visibility: 10 mile(s):0
Sky conditions: clear
Temperature: 93.0 F (33.9 C)
Heat index: 97.9 F (36.6 C):1
Dew Point: 69.1 F (20.6 C)
Relative Humidity: 45%
Pressure (altimeter): 29.84 in. Hg (1010 hPa)
ob: KPWA 032153Z 19012KT 10SM CLR 34/21 A2984 RMK AO2 SLP088 T03390206
cycle: 22

Station Type Date Time Source
KPWA TAF UTC NOAA

Error!

Example: see airport list